createdAt,value
2023-05-20T00:00:47.883Z,48.36
2023-05-20T00:01:47.953Z,46.61
2023-05-20T00:02:48.233Z,45.88
2023-05-20T00:03:48.301Z,47.21
2023-05-20T00:04:48.337Z,45.80
2023-05-20T00:05:48.448Z,45.85
2023-05-20T00:06:48.406Z,47.74
2023-05-20T00:07:48.386Z,44.56
2023-05-20T00:08:48.413Z,49.48
2023-05-20T00:09:48.461Z,46.63
2023-05-20T00:10:48.458Z,45.96
2023-05-20T00:11:48.534Z,47.14
2023-05-20T00:12:48.642Z,45.89
2023-05-20T00:13:48.747Z,46.00
2023-05-20T00:14:48.729Z,47.19
2023-05-20T00:15:48.770Z,45.09
2023-05-20T00:16:48.806Z,44.31
2023-05-20T00:17:48.896Z,46.16
2023-05-20T00:18:48.872Z,46.11
2023-05-20T00:19:48.902Z,47.31
2023-05-20T00:20:48.903Z,45.62
2023-05-20T00:21:48.875Z,46.53
2023-05-20T00:22:48.976Z,47.20
2023-05-20T00:23:48.982Z,47.31
2023-05-20T00:24:48.979Z,49.44
2023-05-20T00:25:49.020Z,47.50
2023-05-20T00:26:48.976Z,43.55
2023-05-20T00:27:49.002Z,47.85
2023-05-20T00:28:49.058Z,47.68
2023-05-20T00:29:49.019Z,46.72
2023-05-20T00:30:49.045Z,47.14
2023-05-20T00:31:49.120Z,44.81
2023-05-20T00:32:49.095Z,47.57
2023-05-20T00:33:49.146Z,45.76
2023-05-20T00:34:49.132Z,49.20
2023-05-20T00:35:49.152Z,49.57
2023-05-20T00:36:49.152Z,47.06
2023-05-20T00:37:49.172Z,45.41
2023-05-20T00:38:49.177Z,45.36
2023-05-20T00:39:49.202Z,46.64
2023-05-20T00:40:49.206Z,46.79
2023-05-20T00:41:49.240Z,47.25
2023-05-20T00:42:49.331Z,46.64
2023-05-20T00:43:49.313Z,46.82
2023-05-20T00:44:49.309Z,47.14
2023-05-20T00:45:49.376Z,45.60
2023-05-20T00:46:49.346Z,49.13
2023-05-20T00:47:49.452Z,47.48
2023-05-20T00:48:49.382Z,47.08
2023-05-20T00:49:50.450Z,47.58
2023-05-20T00:50:49.459Z,49.25
2023-05-20T00:51:49.466Z,49.06
2023-05-20T00:52:49.453Z,46.18
2023-05-20T00:53:49.486Z,48.00
2023-05-20T00:54:49.515Z,45.50
2023-05-20T00:55:49.511Z,46.96
2023-05-20T00:56:49.589Z,48.37
2023-05-20T00:57:49.607Z,46.97
2023-05-20T00:58:49.605Z,46.47
2023-05-20T00:59:49.632Z,47.46
2023-05-20T01:00:49.655Z,48.00
2023-05-20T01:01:49.665Z,47.80
2023-05-20T01:02:49.752Z,47.36
2023-05-20T01:03:49.755Z,47.47
2023-05-20T01:04:49.780Z,47.56
2023-05-20T01:05:49.750Z,47.51
2023-05-20T01:06:49.768Z,45.51
2023-05-20T01:07:49.809Z,45.98
2023-05-20T01:08:49.841Z,47.43
2023-05-20T01:09:49.840Z,45.08
2023-05-20T01:10:49.888Z,46.83
2023-05-20T01:11:49.893Z,46.32
2023-05-20T01:12:49.955Z,45.37
2023-05-20T01:13:49.967Z,47.33
2023-05-20T01:14:50.034Z,46.64
2023-05-20T01:15:50.040Z,50.43
2023-05-20T01:16:50.086Z,47.03
2023-05-20T01:17:50.170Z,47.34
2023-05-20T01:18:50.166Z,45.30
2023-05-20T01:19:50.146Z,46.93
2023-05-20T01:20:50.157Z,46.38
2023-05-20T01:21:50.220Z,45.45
2023-05-20T01:22:50.247Z,50.28
2023-05-20T01:23:50.292Z,48.21
2023-05-20T01:24:50.289Z,47.44
2023-05-20T01:25:50.327Z,48.93
2023-05-20T01:26:50.411Z,47.52
2023-05-20T01:27:50.403Z,46.86
2023-05-20T01:28:50.471Z,47.99
2023-05-20T01:29:50.462Z,46.86
2023-05-20T01:30:50.491Z,48.37
2023-05-20T01:31:50.617Z,48.40
2023-05-20T01:32:50.563Z,47.71
2023-05-20T01:33:50.618Z,48.22
2023-05-20T01:34:50.658Z,49.15
2023-05-20T01:35:50.688Z,48.85
2023-05-20T01:36:50.703Z,49.60
2023-05-20T01:37:50.792Z,47.71
2023-05-20T01:38:50.788Z,47.68
2023-05-20T01:39:50.855Z,47.98
2023-05-20T01:40:50.878Z,48.75
2023-05-20T01:41:50.922Z,47.43
2023-05-20T01:42:50.974Z,47.01
2023-05-20T01:43:50.966Z,46.78
2023-05-20T01:44:51.031Z,47.69
2023-05-20T01:45:51.057Z,49.67
2023-05-20T01:46:51.154Z,49.74
2023-05-20T01:47:51.197Z,48.48
2023-05-20T01:48:51.130Z,48.82
2023-05-20T01:49:51.219Z,44.56
2023-05-20T01:50:51.232Z,47.64
2023-05-20T01:51:51.248Z,47.93
2023-05-20T01:52:51.327Z,47.28
2023-05-20T01:53:51.343Z,47.22
2023-05-20T01:54:51.408Z,47.63
2023-05-20T01:55:51.430Z,48.93
2023-05-20T01:56:51.481Z,47.97
2023-05-20T01:57:51.485Z,48.22
2023-05-20T01:58:51.521Z,48.41
2023-05-20T01:59:51.586Z,49.14
2023-05-20T02:00:51.627Z,48.24
2023-05-20T02:01:51.764Z,47.15
2023-05-20T02:02:51.729Z,48.65
2023-05-20T02:03:51.737Z,47.50
2023-05-20T02:04:51.826Z,46.84
2023-05-20T02:05:51.838Z,48.20
2023-05-20T02:06:51.818Z,48.91
2023-05-20T02:07:51.847Z,49.80
2023-05-20T02:08:51.889Z,49.31
2023-05-20T02:09:51.915Z,47.42
2023-05-20T02:10:51.980Z,49.08
2023-05-20T02:11:52.000Z,52.13
2023-05-20T02:12:52.148Z,47.55
2023-05-20T02:13:52.051Z,50.17
2023-05-20T02:14:52.099Z,48.19
2023-05-20T02:15:52.175Z,51.74
2023-05-20T02:16:52.267Z,47.52
2023-05-20T02:17:52.335Z,50.96
2023-05-20T02:18:52.352Z,48.12
2023-05-20T02:19:52.345Z,47.82
2023-05-20T02:20:52.407Z,48.50
2023-05-20T02:21:52.438Z,50.03
2023-05-20T02:22:52.467Z,50.95
2023-05-20T02:23:52.500Z,47.77
2023-05-20T02:24:52.543Z,50.60
2023-05-20T02:25:52.576Z,47.85
2023-05-20T02:26:52.633Z,47.88
2023-05-20T02:27:52.662Z,50.11
2023-05-20T02:28:52.750Z,47.47
2023-05-20T02:29:52.779Z,47.64
2023-05-20T02:30:52.788Z,49.38
2023-05-20T02:31:52.826Z,49.29
2023-05-20T02:32:52.894Z,46.90
2023-05-20T02:33:52.976Z,49.08
2023-05-20T02:34:52.944Z,51.23
2023-05-20T02:35:52.983Z,49.45
2023-05-20T02:36:53.077Z,48.87
2023-05-20T02:37:53.080Z,48.42
2023-05-20T02:38:53.161Z,47.56
2023-05-20T02:39:53.190Z,48.57
2023-05-20T02:40:53.222Z,49.45
2023-05-20T02:41:53.279Z,51.46
2023-05-20T02:42:53.338Z,48.71
2023-05-20T02:43:53.391Z,48.84
2023-05-20T02:44:53.416Z,49.67
2023-05-20T02:45:53.455Z,49.11
2023-05-20T02:46:53.518Z,49.57
2023-05-20T02:47:53.600Z,51.91
2023-05-20T02:48:53.564Z,50.82
2023-05-20T02:49:53.608Z,51.09
2023-05-20T02:50:53.701Z,48.50
2023-05-20T02:51:53.704Z,50.34
2023-05-20T02:52:53.758Z,50.57
2023-05-20T02:53:53.819Z,48.68
2023-05-20T02:54:53.909Z,48.52
2023-05-20T02:55:53.941Z,50.54
2023-05-20T02:56:53.981Z,53.07
2023-05-20T02:57:54.042Z,46.20
2023-05-20T02:58:54.090Z,50.58
2023-05-20T02:59:54.148Z,52.44
2023-05-20T03:00:54.215Z,48.06
2023-05-20T03:01:54.309Z,50.77
2023-05-20T03:02:54.407Z,51.17
2023-05-20T03:03:54.440Z,48.27
2023-05-20T03:04:54.617Z,49.79
2023-05-20T03:05:54.512Z,52.78
2023-05-20T03:06:54.660Z,51.35
2023-05-20T03:07:54.695Z,52.52
2023-05-20T03:08:54.647Z,53.11
2023-05-20T03:09:54.726Z,51.20
2023-05-20T03:10:54.750Z,50.22
2023-05-20T03:11:54.842Z,51.85
2023-05-20T03:12:54.924Z,51.57
2023-05-20T03:13:54.954Z,49.06
2023-05-20T03:14:55.044Z,50.03
2023-05-20T03:15:55.085Z,53.44
2023-05-20T03:16:55.142Z,50.28
2023-05-20T03:17:55.188Z,49.06
2023-05-20T03:18:55.201Z,49.15
2023-05-20T03:19:55.273Z,48.25
2023-05-20T03:20:55.364Z,48.89
2023-05-20T03:21:55.397Z,51.24
2023-05-20T03:22:55.486Z,53.99
2023-05-20T03:23:55.551Z,51.67
2023-05-20T03:24:55.542Z,51.23
2023-05-20T03:25:55.614Z,50.85
2023-05-20T03:26:55.683Z,51.38
2023-05-20T03:27:55.714Z,50.26
2023-05-20T03:28:55.793Z,52.50
2023-05-20T03:29:55.849Z,48.16
2023-05-20T03:30:55.915Z,51.42
2023-05-20T03:31:55.951Z,51.21
2023-05-20T03:32:56.028Z,51.29
2023-05-20T03:33:56.065Z,50.04
2023-05-20T03:34:56.122Z,50.25
2023-05-20T03:35:56.194Z,51.77
2023-05-20T03:36:56.231Z,50.39
2023-05-20T03:37:56.302Z,52.90
2023-05-20T03:38:56.370Z,52.53
2023-05-20T03:39:56.436Z,50.63
2023-05-20T03:40:56.515Z,50.44
2023-05-20T03:41:56.535Z,50.66
2023-05-20T03:42:56.601Z,51.65
2023-05-20T03:43:56.643Z,50.60
2023-05-20T03:44:56.727Z,50.19
2023-05-20T03:45:56.789Z,53.00
2023-05-20T03:46:57.015Z,48.99
2023-05-20T03:47:56.904Z,53.06
2023-05-20T03:48:56.944Z,50.58
2023-05-20T03:49:57.034Z,52.22
2023-05-20T03:50:57.043Z,50.02
2023-05-20T03:51:57.135Z,49.93
2023-05-20T03:52:57.165Z,52.49
2023-05-20T03:53:57.240Z,50.08
2023-05-20T03:54:57.279Z,50.70
2023-05-20T03:55:57.332Z,50.69
2023-05-20T03:56:57.388Z,51.14
2023-05-20T03:57:57.499Z,51.60
2023-05-20T03:58:57.463Z,51.26
2023-05-20T03:59:57.495Z,52.30
2023-05-20T04:00:57.590Z,52.35
2023-05-20T04:01:57.640Z,53.22
2023-05-20T04:02:57.756Z,51.81
2023-05-20T04:03:57.776Z,49.19
2023-05-20T04:04:57.853Z,50.22
2023-05-20T04:05:57.876Z,50.50
2023-05-20T04:06:57.944Z,52.22
2023-05-20T04:07:57.987Z,49.29
2023-05-20T04:08:58.050Z,52.54
2023-05-20T04:09:58.099Z,50.99
2023-05-20T04:10:58.168Z,52.04
2023-05-20T04:11:58.215Z,51.65
2023-05-20T04:12:58.277Z,52.05
2023-05-20T04:13:58.328Z,51.85
2023-05-20T04:14:58.390Z,51.57
2023-05-20T04:15:58.448Z,49.81
2023-05-20T04:16:58.473Z,52.29
2023-05-20T04:17:58.612Z,53.14
2023-05-20T04:18:58.606Z,54.75
2023-05-20T04:19:58.631Z,53.59
2023-05-20T04:20:58.686Z,54.06
2023-05-20T04:21:58.763Z,52.86
2023-05-20T04:22:58.805Z,53.23
2023-05-20T04:23:58.817Z,50.66
2023-05-20T04:24:58.920Z,53.11
2023-05-20T04:25:58.943Z,49.39
2023-05-20T04:26:59.000Z,49.25
2023-05-20T04:27:59.048Z,48.30
2023-05-20T04:28:59.149Z,50.19
2023-05-20T04:29:59.166Z,52.71
2023-05-20T04:30:59.178Z,50.57
2023-05-20T04:31:59.234Z,49.48
2023-05-20T04:32:59.323Z,50.35
2023-05-20T04:33:59.341Z,53.64
2023-05-20T04:34:59.354Z,53.95
2023-05-20T04:35:59.412Z,48.75
2023-05-20T04:36:59.463Z,49.47
2023-05-20T04:37:59.521Z,50.64
2023-05-20T04:38:59.546Z,50.27
2023-05-20T04:39:59.578Z,50.58
2023-05-20T04:40:59.650Z,48.25
2023-05-20T04:41:59.698Z,49.99
2023-05-20T04:42:59.775Z,47.50
2023-05-20T04:43:59.834Z,51.52
2023-05-20T04:44:59.781Z,49.26
2023-05-20T04:45:59.911Z,48.98
2023-05-20T04:46:59.891Z,48.90
2023-05-20T04:47:59.958Z,52.01
2023-05-20T04:48:59.915Z,51.41
2023-05-20T04:49:59.973Z,52.92
2023-05-20T04:51:00.018Z,50.53
2023-05-20T04:52:00.043Z,47.36
2023-05-20T04:53:00.132Z,49.08
2023-05-20T04:54:00.167Z,53.83
2023-05-20T04:55:00.157Z,50.44
2023-05-20T04:56:00.212Z,49.59
2023-05-20T04:57:00.259Z,50.08
2023-05-20T04:58:00.366Z,51.67
2023-05-20T04:59:00.321Z,51.87
2023-05-20T05:00:00.331Z,48.74
2023-05-20T05:01:00.346Z,52.37
2023-05-20T05:02:00.582Z,48.95
2023-05-20T05:03:00.502Z,49.84
2023-05-20T05:04:00.476Z,48.82
2023-05-20T05:05:00.486Z,51.30
2023-05-20T05:06:00.537Z,50.94
2023-05-20T05:07:00.525Z,53.60
2023-05-20T05:08:00.637Z,50.94
2023-05-20T05:09:00.565Z,51.59
2023-05-20T05:10:00.624Z,53.02
2023-05-20T05:11:00.735Z,52.54
2023-05-20T05:12:00.832Z,54.89
2023-05-20T05:13:00.928Z,53.26
2023-05-20T05:14:00.977Z,52.74
2023-05-20T05:15:01.121Z,54.55
2023-05-20T05:16:01.213Z,48.44
2023-05-20T05:17:01.116Z,51.44
2023-05-20T05:18:01.170Z,51.09
2023-05-20T05:19:01.236Z,53.00
2023-05-20T05:20:01.181Z,48.63
2023-05-20T05:21:01.154Z,50.63
2023-05-20T05:22:01.205Z,50.85
2023-05-20T05:23:01.218Z,48.86
2023-05-20T05:24:01.277Z,52.48
2023-05-20T05:25:01.232Z,51.26
2023-05-20T05:26:01.244Z,53.00
2023-05-20T05:27:01.230Z,52.41
2023-05-20T05:28:01.256Z,53.61
2023-05-20T05:29:01.246Z,53.34
2023-05-20T05:30:01.306Z,54.18
2023-05-20T05:31:01.316Z,55.73
2023-05-20T05:32:01.298Z,54.70
2023-05-20T05:33:01.532Z,55.37
2023-05-20T05:34:01.280Z,54.82
2023-05-20T05:35:01.353Z,55.60
2023-05-20T05:36:01.509Z,55.45
2023-05-20T05:37:01.480Z,53.83
2023-05-20T05:38:01.538Z,58.05
2023-05-20T05:39:01.514Z,53.25
2023-05-20T05:40:01.508Z,56.19
2023-05-20T05:41:01.543Z,55.78
2023-05-20T05:42:01.585Z,57.62
2023-05-20T05:43:01.652Z,57.29
2023-05-20T05:44:01.709Z,56.30
2023-05-20T05:45:01.766Z,59.11
2023-05-20T05:46:01.825Z,58.98
2023-05-20T05:47:01.955Z,58.54
2023-05-20T05:48:01.997Z,57.71
2023-05-20T05:49:02.013Z,58.33
2023-05-20T05:50:02.074Z,58.15
2023-05-20T05:51:02.250Z,61.11
2023-05-20T05:52:02.178Z,59.76
2023-05-20T05:53:02.230Z,59.86
2023-05-20T05:54:02.305Z,57.69
2023-05-20T05:55:02.344Z,58.13
2023-05-20T05:56:02.401Z,58.97
2023-05-20T05:57:03.216Z,58.99
2023-05-20T05:58:02.516Z,58.18
2023-05-20T05:59:02.588Z,57.99
2023-05-20T06:00:02.627Z,60.77
2023-05-20T06:01:02.698Z,57.53
2023-05-20T06:02:02.795Z,59.04
2023-05-20T06:03:02.911Z,60.44
2023-05-20T06:04:02.999Z,58.60
2023-05-20T06:05:02.923Z,58.11
2023-05-20T06:06:02.989Z,56.76
2023-05-20T06:07:03.037Z,60.59
2023-05-20T06:08:03.063Z,58.16
2023-05-20T06:09:03.176Z,58.23
2023-05-20T06:10:03.293Z,58.64
2023-05-20T06:11:03.269Z,58.82
2023-05-20T06:12:03.302Z,59.67
2023-05-20T06:13:03.431Z,59.78
2023-05-20T06:14:03.466Z,59.77
2023-05-20T06:15:03.505Z,59.06
2023-05-20T06:16:03.705Z,59.32
2023-05-20T06:17:03.719Z,55.62
2023-05-20T06:18:03.717Z,57.09
2023-05-20T06:19:03.995Z,58.95
2023-05-20T06:20:03.816Z,59.45
2023-05-20T06:21:03.920Z,59.14
2023-05-20T06:22:03.882Z,59.03
2023-05-20T06:23:03.956Z,63.15
2023-05-20T06:24:04.002Z,58.86
2023-05-20T06:25:04.070Z,59.61
2023-05-20T06:26:04.159Z,62.00
2023-05-20T06:27:04.192Z,56.55
2023-05-20T06:28:04.243Z,59.78
2023-05-20T06:29:04.318Z,57.79
2023-05-20T06:30:04.365Z,57.99
2023-05-20T06:31:04.440Z,60.54
2023-05-20T06:32:04.710Z,59.50
2023-05-20T06:33:04.611Z,61.66
2023-05-20T06:34:04.578Z,59.71
2023-05-20T06:35:04.607Z,62.91
2023-05-20T06:36:04.715Z,61.96
2023-05-20T06:37:04.720Z,59.10
2023-05-20T06:38:04.832Z,61.08
2023-05-20T06:39:04.835Z,60.58
2023-05-20T06:40:04.902Z,59.83
2023-05-20T06:41:04.935Z,60.50
2023-05-20T06:42:04.951Z,61.04
2023-05-20T06:43:05.008Z,61.36
2023-05-20T06:44:05.075Z,63.04
2023-05-20T06:45:05.210Z,60.27
2023-05-20T06:46:05.162Z,63.04
2023-05-20T06:47:05.163Z,60.29
2023-05-20T06:48:05.232Z,60.75
2023-05-20T06:49:05.269Z,61.84
2023-05-20T06:50:05.270Z,60.22
2023-05-20T06:51:05.279Z,57.40
2023-05-20T06:52:05.343Z,56.83
2023-05-20T06:53:05.290Z,57.80
2023-05-20T06:54:05.293Z,56.79
2023-05-20T06:55:05.367Z,57.83
2023-05-20T06:56:05.425Z,61.11
2023-05-20T06:57:05.347Z,63.56
2023-05-20T06:58:05.327Z,52.76
2023-05-20T06:59:05.333Z,54.26
2023-05-20T07:00:05.335Z,57.39
2023-05-20T07:01:05.359Z,61.53
2023-05-20T07:02:05.425Z,56.98
2023-05-20T07:03:05.419Z,61.38
2023-05-20T07:04:05.435Z,52.58
2023-05-20T07:05:05.409Z,60.77
2023-05-20T07:06:05.482Z,58.78
2023-05-20T07:07:05.484Z,49.05
2023-05-20T07:08:05.550Z,53.17
2023-05-20T07:09:05.665Z,60.59
2023-05-20T07:10:05.660Z,57.49
2023-05-20T07:11:05.774Z,55.42
2023-05-20T07:12:05.776Z,57.05
2023-05-20T07:13:05.845Z,56.05
2023-05-20T07:14:05.885Z,56.70
2023-05-20T07:15:05.958Z,55.52
2023-05-20T07:16:06.045Z,52.95
2023-05-20T07:17:06.065Z,56.93
2023-05-20T07:18:06.142Z,58.83
2023-05-20T07:19:06.266Z,55.99
2023-05-20T07:20:06.192Z,60.65
2023-05-20T07:21:06.297Z,58.34
2023-05-20T07:22:06.314Z,58.30
2023-05-20T07:23:06.366Z,58.16
2023-05-20T07:24:06.434Z,56.51
2023-05-20T07:25:06.466Z,60.24
2023-05-20T07:26:06.553Z,54.62
2023-05-20T07:27:06.572Z,56.37
2023-05-20T07:28:06.655Z,56.52
2023-05-20T07:29:06.658Z,56.45
2023-05-20T07:30:06.701Z,58.44
2023-05-20T07:31:06.782Z,57.19
2023-05-20T07:32:06.839Z,59.37
2023-05-20T07:33:06.888Z,58.35
2023-05-20T07:34:06.840Z,56.71
2023-05-20T07:35:06.917Z,56.91
2023-05-20T07:36:08.013Z,56.57
2023-05-20T07:37:06.961Z,59.11
2023-05-20T07:38:06.924Z,57.90
2023-05-20T07:39:10.364Z,61.53
2023-05-20T07:40:07.916Z,61.72
2023-05-20T07:41:06.951Z,62.21
2023-05-20T07:42:06.955Z,61.88
2023-05-20T07:43:06.901Z,60.48
2023-05-20T07:44:06.910Z,62.25
2023-05-20T07:45:06.867Z,61.46
2023-05-20T07:46:06.904Z,63.51
2023-05-20T07:47:06.933Z,61.66
2023-05-20T07:48:06.939Z,59.69
2023-05-20T07:49:06.921Z,59.35
2023-05-20T07:50:06.839Z,60.65
2023-05-20T07:51:06.843Z,58.38
2023-05-20T07:52:06.837Z,60.67
2023-05-20T07:53:06.866Z,61.27
2023-05-20T07:54:06.853Z,62.00
2023-05-20T07:55:06.896Z,61.57
2023-05-20T07:56:06.993Z,59.07
2023-05-20T07:57:06.984Z,60.48
2023-05-20T07:58:07.043Z,60.30
2023-05-20T07:59:07.071Z,60.53
2023-05-20T08:00:07.115Z,60.51
2023-05-20T08:01:07.188Z,61.54
2023-05-20T08:02:07.315Z,62.89
2023-05-20T08:03:07.414Z,61.38
2023-05-20T08:04:07.319Z,61.40
2023-05-20T08:05:07.325Z,64.49
2023-05-20T08:06:07.318Z,63.06
2023-05-20T08:07:07.355Z,63.66
2023-05-20T08:08:07.447Z,65.44
2023-05-20T08:09:07.448Z,62.50
2023-05-20T08:10:07.460Z,61.56
2023-05-20T08:11:07.464Z,63.33
2023-05-20T08:12:07.466Z,64.07
2023-05-20T08:13:07.513Z,64.80
2023-05-20T08:14:07.504Z,64.01
2023-05-20T08:15:07.533Z,63.02
2023-05-20T08:16:07.533Z,63.22
2023-05-20T08:17:07.697Z,61.94
2023-05-20T08:18:07.584Z,64.06
2023-05-20T08:19:07.589Z,64.33
2023-05-20T08:20:07.551Z,64.62
2023-05-20T08:21:07.555Z,64.52
2023-05-20T08:22:07.572Z,62.13
2023-05-20T08:23:07.581Z,63.14
2023-05-20T08:24:07.628Z,65.13
2023-05-20T08:25:07.687Z,65.06
2023-05-20T08:26:07.762Z,68.11
2023-05-20T08:27:07.745Z,64.66
2023-05-20T08:28:07.774Z,71.68
2023-05-20T08:29:07.826Z,66.81
2023-05-20T08:30:07.846Z,67.61
2023-05-20T08:31:08.054Z,67.38
2023-05-20T08:32:08.005Z,67.17
2023-05-20T08:33:08.097Z,64.79
2023-05-20T08:34:08.072Z,65.89
2023-05-20T08:35:08.163Z,67.39
2023-05-20T08:36:08.080Z,64.38
2023-05-20T08:37:08.140Z,63.31
2023-05-20T08:38:08.219Z,67.00
2023-05-20T08:39:08.261Z,68.42
2023-05-20T08:40:08.262Z,68.39
2023-05-20T08:41:08.316Z,68.25
2023-05-20T08:42:08.329Z,69.43
2023-05-20T08:43:08.390Z,69.22
2023-05-20T08:44:08.391Z,67.70
2023-05-20T08:45:08.455Z,69.61
2023-05-20T08:46:08.488Z,74.47
2023-05-20T08:47:08.532Z,72.52
2023-05-20T08:48:08.557Z,72.46
2023-05-20T08:49:08.532Z,71.44
2023-05-20T08:50:08.569Z,75.61
2023-05-20T08:51:08.581Z,76.74
2023-05-20T08:52:08.597Z,74.38
2023-05-20T08:53:08.668Z,75.30
2023-05-20T08:54:08.790Z,72.42
2023-05-20T08:55:08.706Z,73.82
2023-05-20T08:56:08.720Z,69.39
2023-05-20T08:57:08.823Z,76.24
2023-05-20T08:58:08.804Z,74.41
2023-05-20T08:59:08.854Z,72.50
2023-05-20T09:00:08.854Z,79.05
2023-05-20T09:01:08.856Z,73.13
2023-05-20T09:02:09.001Z,76.40
2023-05-20T09:03:09.578Z,72.97
2023-05-20T09:04:08.950Z,74.48
2023-05-20T09:05:09.087Z,74.39
2023-05-20T09:06:08.990Z,74.28
2023-05-20T09:07:09.003Z,71.75
2023-05-20T09:08:09.075Z,73.05
2023-05-20T09:09:09.088Z,74.94
2023-05-20T09:10:09.136Z,77.91
2023-05-20T09:11:09.203Z,74.12
2023-05-20T09:12:09.126Z,75.13
2023-05-20T09:13:09.160Z,77.17
2023-05-20T09:14:09.224Z,72.74
2023-05-20T09:15:09.228Z,75.44
2023-05-20T09:16:09.287Z,74.38
2023-05-20T09:17:09.241Z,77.20
2023-05-20T09:18:09.417Z,73.56
2023-05-20T09:19:09.370Z,77.60
2023-05-20T09:20:09.337Z,71.22
2023-05-20T09:21:09.367Z,75.13
2023-05-20T09:22:09.374Z,76.87
2023-05-20T09:23:09.387Z,78.40
2023-05-20T09:24:09.528Z,76.56
2023-05-20T09:25:09.509Z,78.88
2023-05-20T09:26:09.513Z,77.56
2023-05-20T09:27:09.516Z,75.28
2023-05-20T09:28:09.546Z,76.43
2023-05-20T09:29:09.561Z,78.15
2023-05-20T09:30:09.633Z,75.50
2023-05-20T09:31:09.766Z,75.53
2023-05-20T09:32:09.877Z,77.48
2023-05-20T09:33:09.994Z,79.14
2023-05-20T09:34:10.012Z,76.57
2023-05-20T09:35:10.153Z,79.29
2023-05-20T09:36:10.082Z,77.71
2023-05-20T09:37:10.092Z,77.76
2023-05-20T09:38:10.122Z,76.78
2023-05-20T09:39:10.114Z,78.29
2023-05-20T09:40:10.124Z,75.05
2023-05-20T09:41:10.152Z,78.12
2023-05-20T09:42:10.241Z,76.55
2023-05-20T09:43:10.352Z,79.04
2023-05-20T09:44:10.360Z,79.71
2023-05-20T09:45:10.365Z,75.63
2023-05-20T09:46:10.392Z,73.21
2023-05-20T09:47:10.385Z,77.50
2023-05-20T09:48:10.401Z,75.36
2023-05-20T09:49:10.466Z,73.35
2023-05-20T09:50:10.548Z,75.56
2023-05-20T09:51:10.596Z,74.55
2023-05-20T09:52:10.546Z,74.71
2023-05-20T09:53:10.563Z,75.80
2023-05-20T09:54:10.546Z,75.01
2023-05-20T09:55:10.642Z,74.87
2023-05-20T09:56:10.596Z,73.19
2023-05-20T09:57:10.572Z,76.15
2023-05-20T09:58:10.631Z,75.56
2023-05-20T09:59:10.616Z,74.71
2023-05-20T10:00:10.704Z,74.59
2023-05-20T10:01:10.715Z,75.07
2023-05-20T10:02:10.841Z,79.02
2023-05-20T10:03:10.854Z,78.08
2023-05-20T10:04:10.835Z,80.31
2023-05-20T10:05:10.899Z,78.10
2023-05-20T10:06:10.922Z,77.39
2023-05-20T10:07:11.022Z,77.73
2023-05-20T10:08:11.059Z,80.50
2023-05-20T10:09:11.112Z,76.47
2023-05-20T10:10:11.485Z,78.44
2023-05-20T10:11:11.248Z,79.49
2023-05-20T10:12:11.343Z,80.04
2023-05-20T10:13:11.365Z,80.29
2023-05-20T10:14:11.422Z,78.18
2023-05-20T10:15:11.518Z,79.32
2023-05-20T10:16:11.564Z,82.71
2023-05-20T10:17:11.627Z,78.60
2023-05-20T10:18:11.653Z,79.64
2023-05-20T10:19:12.004Z,79.64
2023-05-20T10:20:11.847Z,78.53
2023-05-20T10:21:11.834Z,74.39
2023-05-20T10:22:11.947Z,75.94
2023-05-20T10:23:11.941Z,81.34
2023-05-20T10:24:12.049Z,79.18
2023-05-20T10:25:12.246Z,80.20
2023-05-20T10:26:12.143Z,78.69
2023-05-20T10:27:12.206Z,79.19
2023-05-20T10:28:12.212Z,81.26
2023-05-20T10:29:12.416Z,79.55
2023-05-20T10:30:12.348Z,80.26
2023-05-20T10:31:12.397Z,80.14
2023-05-20T10:32:12.986Z,80.63
2023-05-20T10:33:12.610Z,77.63
2023-05-20T10:34:12.549Z,78.55
2023-05-20T10:35:12.569Z,83.38
2023-05-20T10:36:12.621Z,78.01
2023-05-20T10:37:12.641Z,78.31
2023-05-20T10:38:12.730Z,83.10
2023-05-20T10:39:12.752Z,81.47
2023-05-20T10:40:12.803Z,83.60
2023-05-20T10:41:12.815Z,85.42
2023-05-20T10:42:12.890Z,84.81
2023-05-20T10:43:12.919Z,84.08
2023-05-20T10:44:12.931Z,81.56
2023-05-20T10:45:13.021Z,83.19
2023-05-20T10:46:26.274Z,83.25
2023-05-20T10:47:24.847Z,83.46
2023-05-20T10:48:14.075Z,83.65
2023-05-20T10:49:13.113Z,85.08
2023-05-20T10:50:13.010Z,85.38
2023-05-20T10:51:12.986Z,85.64
2023-05-20T10:52:12.985Z,85.64
2023-05-20T10:53:21.734Z,87.45
2023-05-20T10:54:13.978Z,87.71
2023-05-20T10:55:13.105Z,88.14
2023-05-20T10:56:12.950Z,87.70
2023-05-20T10:57:12.973Z,85.57
2023-05-20T10:58:12.947Z,86.48
2023-05-20T10:59:13.000Z,85.93
2023-05-20T11:00:12.984Z,84.75
2023-05-20T11:01:12.970Z,85.38
2023-05-20T11:02:12.928Z,84.30
2023-05-20T11:03:13.082Z,88.84
2023-05-20T11:04:13.050Z,84.01
2023-05-20T11:05:12.903Z,85.72
2023-05-20T11:06:12.935Z,83.87
2023-05-20T11:07:12.935Z,89.13
2023-05-20T11:08:27.167Z,83.59
2023-05-20T11:09:13.963Z,83.78
2023-05-20T11:10:12.885Z,84.23
2023-05-20T11:11:12.878Z,84.46
2023-05-20T11:12:12.878Z,85.59
2023-05-20T11:13:12.912Z,85.98
2023-05-20T11:14:12.886Z,86.51
2023-05-20T11:15:12.893Z,87.46
2023-05-20T11:16:12.877Z,87.27
2023-05-20T11:17:12.882Z,84.02
2023-05-20T11:18:12.885Z,86.87
2023-05-20T11:19:12.907Z,85.05
2023-05-20T11:20:12.854Z,89.15
2023-05-20T11:21:12.865Z,86.46
2023-05-20T11:22:12.921Z,84.10
2023-05-20T11:23:12.790Z,87.27
2023-05-20T11:24:12.835Z,85.92
2023-05-20T11:25:12.831Z,83.98
2023-05-20T11:26:12.814Z,83.66
2023-05-20T11:27:12.833Z,84.57
2023-05-20T11:28:12.777Z,85.35
2023-05-20T11:29:12.793Z,86.94
2023-05-20T11:30:12.832Z,81.90
2023-05-20T11:31:12.826Z,86.68
2023-05-20T11:32:12.904Z,85.44
2023-05-20T11:33:12.942Z,84.53
2023-05-20T11:34:12.870Z,86.85
2023-05-20T11:35:12.903Z,88.07
2023-05-20T11:36:23.876Z,85.42
2023-05-20T11:37:13.909Z,85.58
2023-05-20T11:38:12.874Z,85.98
2023-05-20T11:39:12.896Z,86.32
2023-05-20T11:40:12.915Z,86.53
2023-05-20T11:41:12.879Z,85.91
2023-05-20T11:42:12.849Z,85.94
2023-05-20T11:43:12.875Z,85.48
2023-05-20T11:44:12.868Z,87.63
2023-05-20T11:45:12.833Z,85.70
2023-05-20T11:46:12.907Z,83.90
2023-05-20T11:47:12.836Z,82.83
2023-05-20T11:48:13.003Z,84.15
2023-05-20T11:49:12.833Z,86.76
2023-05-20T11:50:12.854Z,83.87
2023-05-20T11:51:12.798Z,84.95
2023-05-20T11:52:12.795Z,85.70
2023-05-20T11:53:12.799Z,83.67
2023-05-20T11:54:12.821Z,84.93
2023-05-20T11:55:12.796Z,84.56
2023-05-20T11:56:12.763Z,84.56
2023-05-20T11:57:12.776Z,84.33
2023-05-20T11:58:12.782Z,84.17
2023-05-20T11:59:12.758Z,83.49
2023-05-20T12:00:12.773Z,86.22
2023-05-20T12:01:21.748Z,84.21
2023-05-20T12:02:15.992Z,84.39
2023-05-20T12:03:12.823Z,85.27
2023-05-20T12:04:12.878Z,85.11
2023-05-20T12:05:12.741Z,86.05
2023-05-20T12:06:12.736Z,83.64
2023-05-20T12:07:12.721Z,87.07
2023-05-20T12:08:12.699Z,83.14
2023-05-20T12:09:12.703Z,84.06
2023-05-20T12:10:12.707Z,83.01
2023-05-20T12:11:12.713Z,83.68
2023-05-20T12:12:12.671Z,85.52
2023-05-20T12:13:12.692Z,84.85
2023-05-20T12:14:12.656Z,84.67
2023-05-20T12:15:12.657Z,83.73
2023-05-20T12:16:12.679Z,86.13
2023-05-20T12:17:12.646Z,85.56
2023-05-20T12:18:12.720Z,82.20
2023-05-20T12:19:12.637Z,81.22
2023-05-20T12:20:12.643Z,83.68
2023-05-20T12:21:12.627Z,85.35
2023-05-20T12:22:12.616Z,88.20
2023-05-20T12:23:12.611Z,81.83
2023-05-20T12:24:12.603Z,82.29
2023-05-20T12:25:13.072Z,84.07
2023-05-20T12:26:12.614Z,82.79
2023-05-20T12:27:12.601Z,84.26
2023-05-20T12:28:12.587Z,84.62
2023-05-20T12:29:12.604Z,81.40
2023-05-20T12:30:12.587Z,83.59
2023-05-20T12:31:12.589Z,84.42
2023-05-20T12:32:12.618Z,82.65
2023-05-20T12:33:12.592Z,84.60
2023-05-20T12:34:12.522Z,81.69
2023-05-20T12:35:12.555Z,82.38
2023-05-20T12:36:12.619Z,84.53
2023-05-20T12:37:12.575Z,82.33
2023-05-20T12:38:12.546Z,83.64
2023-05-20T12:39:12.535Z,80.81
2023-05-20T12:40:12.529Z,79.77
2023-05-20T12:41:12.498Z,83.82
2023-05-20T12:42:12.512Z,84.14
2023-05-20T12:43:12.486Z,83.24
2023-05-20T12:44:12.723Z,81.10
2023-05-20T12:45:12.460Z,80.77
2023-05-20T12:46:12.463Z,79.22
2023-05-20T12:47:12.471Z,82.12
2023-05-20T12:48:12.480Z,81.01
2023-05-20T12:49:12.464Z,80.55
2023-05-20T12:50:12.491Z,84.39
2023-05-20T12:51:12.427Z,82.39
2023-05-20T12:52:21.887Z,81.19
2023-05-20T12:53:13.515Z,81.49